createdAt,value
2022-07-26T00:00:25.762Z,3.85
2022-07-26T00:02:52.466Z,3.63
2022-07-26T00:05:19.271Z,3.70
2022-07-26T00:07:46.657Z,3.83
2022-07-26T00:10:14.503Z,3.80
2022-07-26T00:12:42.089Z,3.75
2022-07-26T00:15:10.689Z,4.45
2022-07-26T00:17:38.674Z,3.67
2022-07-26T00:20:06.204Z,3.95
2022-07-26T00:22:34.639Z,4.43
2022-07-26T00:25:07.326Z,4.03
2022-07-26T00:27:37.376Z,4.00
2022-07-26T00:30:10.677Z,4.57
2022-07-26T00:32:38.357Z,4.05
2022-07-26T00:35:05.819Z,4.07
2022-07-26T00:37:32.639Z,4.15
2022-07-26T00:39:59.564Z,4.35
2022-07-26T00:42:27.579Z,4.22
2022-07-26T00:44:54.563Z,4.07
2022-07-26T00:47:22.511Z,4.20
2022-07-26T00:49:49.545Z,4.32
2022-07-26T00:52:17.638Z,4.10
2022-07-26T00:54:47.033Z,4.47
2022-07-26T00:57:16.535Z,4.10
2022-07-26T01:02:10.836Z,4.57
2022-07-26T01:04:37.722Z,4.40
2022-07-26T01:07:15.169Z,4.90
2022-07-26T01:09:42.977Z,3.72
2022-07-26T01:12:10.020Z,3.90
2022-07-26T01:14:37.124Z,4.22
2022-07-26T01:17:06.141Z,4.38
2022-07-26T01:19:32.796Z,4.50
2022-07-26T01:21:59.648Z,4.57
2022-07-26T01:24:27.710Z,4.50
2022-07-26T01:26:56.716Z,4.40
2022-07-26T01:29:24.729Z,4.30
2022-07-26T01:32:04.157Z,5.15
2022-07-26T01:34:32.496Z,4.93
2022-07-26T01:36:59.330Z,4.72
2022-07-26T01:39:25.979Z,5.03
2022-07-26T01:41:54.406Z,4.60
2022-07-26T01:44:21.117Z,4.55
2022-07-26T01:46:47.741Z,4.78
2022-07-26T01:49:14.768Z,4.88
2022-07-26T01:51:41.483Z,4.65
2022-07-26T01:54:08.426Z,4.80
2022-07-26T01:56:35.351Z,5.00
2022-07-26T01:59:02.253Z,4.85
2022-07-26T02:01:39.501Z,4.95
2022-07-26T02:04:09.166Z,4.97
2022-07-26T02:06:37.176Z,4.32
2022-07-26T02:09:07.479Z,4.60
2022-07-26T02:11:34.401Z,4.80
2022-07-26T02:14:01.100Z,4.95
2022-07-26T02:16:27.832Z,4.72
2022-07-26T02:18:55.724Z,5.03
2022-07-26T02:21:23.472Z,5.18
2022-07-26T02:23:50.128Z,4.63
2022-07-26T02:26:16.820Z,5.63
2022-07-26T02:28:43.523Z,5.25
2022-07-26T02:31:10.226Z,5.20
2022-07-26T02:33:38.460Z,5.35
2022-07-26T02:36:05.450Z,5.25
2022-07-26T02:38:32.264Z,5.70
2022-07-26T02:40:58.927Z,5.40
2022-07-26T02:43:27.016Z,6.93
2022-07-26T02:46:01.529Z,5.15
2022-07-26T02:48:32.948Z,5.43
2022-07-26T02:51:00.012Z,5.20
2022-07-26T02:53:26.768Z,5.57
2022-07-26T02:55:53.421Z,5.60
2022-07-26T02:58:25.229Z,5.35
2022-07-26T03:00:51.954Z,5.05
2022-07-26T03:03:19.167Z,5.50
2022-07-26T03:05:46.006Z,5.75
2022-07-26T03:08:12.689Z,5.32
2022-07-26T03:10:39.912Z,6.03
2022-07-26T03:13:07.320Z,5.50
2022-07-26T03:15:34.134Z,5.38
2022-07-26T03:18:00.955Z,5.32
2022-07-26T03:20:27.654Z,5.53
2022-07-26T03:22:54.374Z,5.32
2022-07-26T03:25:21.838Z,5.25
2022-07-26T03:27:48.673Z,5.78
2022-07-26T03:30:15.690Z,6.25
2022-07-26T03:32:42.394Z,5.97
2022-07-26T03:35:11.708Z,6.75
2022-07-26T03:37:45.096Z,5.75
2022-07-26T03:40:14.316Z,6.32
2022-07-26T03:42:41.006Z,5.25
2022-07-26T03:45:09.467Z,6.32
2022-07-26T03:47:38.024Z,5.50
2022-07-26T03:50:06.275Z,6.43
2022-07-26T03:52:33.384Z,6.05
2022-07-26T03:55:00.143Z,5.60
2022-07-26T03:57:28.280Z,5.65
2022-07-26T03:59:56.004Z,5.70
2022-07-26T04:02:22.720Z,5.32
2022-07-26T04:04:49.435Z,5.45
2022-07-26T04:07:16.195Z,5.40
2022-07-26T04:09:42.995Z,5.68
2022-07-26T04:12:09.741Z,5.03
2022-07-26T04:14:36.460Z,5.95
2022-07-26T04:17:03.230Z,6.30
2022-07-26T04:19:30.249Z,8.00
2022-07-26T04:21:56.946Z,5.72
2022-07-26T04:24:25.322Z,5.80
2022-07-26T04:26:53.225Z,6.15
2022-07-26T04:29:20.173Z,5.82
2022-07-26T04:31:47.007Z,5.90
2022-07-26T04:34:13.766Z,5.68
2022-07-26T04:36:40.505Z,5.97
2022-07-26T04:39:07.166Z,6.30
2022-07-26T04:41:33.808Z,5.65
2022-07-26T04:44:00.443Z,6.57
2022-07-26T04:46:27.152Z,5.78
2022-07-26T04:48:54.001Z,6.20
2022-07-26T04:51:20.914Z,6.00
2022-07-26T04:53:48.987Z,6.13
2022-07-26T04:56:15.684Z,6.68
2022-07-26T04:58:42.360Z,6.32
2022-07-26T05:01:10.977Z,5.93
2022-07-26T05:03:38.817Z,6.70
2022-07-26T05:06:05.632Z,6.80
2022-07-26T05:08:32.349Z,6.05
2022-07-26T05:10:59.131Z,6.85
2022-07-26T05:13:29.581Z,6.60
2022-07-26T05:15:56.883Z,6.53
2022-07-26T05:18:23.561Z,6.20
2022-07-26T05:20:51.676Z,6.40
2022-07-26T05:23:20.011Z,6.43
2022-07-26T05:25:47.488Z,7.05
2022-07-26T05:28:14.321Z,6.28
2022-07-26T05:30:41.075Z,7.18
2022-07-26T05:33:07.995Z,7.40
2022-07-26T05:35:34.692Z,6.78
2022-07-26T05:38:01.346Z,7.18
2022-07-26T05:40:27.990Z,8.13
2022-07-26T05:42:54.676Z,7.03
2022-07-26T05:45:21.441Z,7.68
2022-07-26T05:47:51.746Z,7.78
2022-07-26T05:50:19.708Z,7.88
2022-07-26T05:52:46.496Z,8.02
2022-07-26T05:55:13.988Z,7.85
2022-07-26T05:57:42.102Z,7.80
2022-07-26T06:00:10.360Z,7.30
2022-07-26T06:02:38.359Z,8.48
2022-07-26T06:05:05.355Z,8.23
2022-07-26T06:07:32.190Z,9.05
2022-07-26T06:09:58.909Z,7.88
2022-07-26T06:12:25.664Z,8.52
2022-07-26T06:14:52.404Z,7.72
2022-07-26T06:17:19.306Z,8.30
2022-07-26T06:19:47.826Z,9.05
2022-07-26T06:22:15.232Z,9.20
2022-07-26T06:24:42.027Z,8.55
2022-07-26T06:27:08.837Z,10.10
2022-07-26T06:29:35.581Z,9.35
2022-07-26T06:32:02.404Z,10.07
2022-07-26T06:34:29.575Z,9.10
2022-07-26T06:36:56.311Z,9.30
2022-07-26T06:39:23.027Z,9.57
2022-07-26T06:41:50.263Z,9.32
2022-07-26T06:44:17.026Z,8.73
2022-07-26T06:46:43.857Z,10.68
2022-07-26T06:49:11.021Z,11.13
2022-07-26T06:51:38.150Z,10.00
2022-07-26T06:54:05.964Z,11.05
2022-07-26T06:56:33.100Z,11.10
2022-07-26T06:59:03.056Z,11.55
2022-07-26T07:01:57.855Z,11.75
2022-07-26T07:04:18.582Z,14.55
2022-07-26T07:06:45.298Z,13.95
2022-07-26T07:09:12.539Z,13.70
2022-07-26T07:11:39.428Z,13.75
2022-07-26T07:14:06.880Z,13.98
2022-07-26T07:16:33.718Z,15.35
2022-07-26T07:19:00.464Z,13.45
2022-07-26T07:21:27.710Z,14.38
2022-07-26T07:23:54.390Z,12.43
2022-07-26T07:26:21.105Z,13.95
2022-07-26T07:28:48.642Z,13.05
2022-07-26T07:31:16.090Z,13.73
2022-07-26T07:33:53.612Z,12.20
2022-07-26T07:36:21.358Z,12.10
2022-07-26T07:38:48.908Z,12.15
2022-07-26T07:41:16.542Z,13.50
2022-07-26T07:43:43.250Z,12.65
2022-07-26T07:46:10.006Z,13.85
2022-07-26T07:48:41.072Z,16.38
2022-07-26T07:51:11.836Z,14.18
2022-07-26T07:53:38.545Z,16.55
2022-07-26T07:56:05.361Z,15.32
2022-07-26T07:58:32.586Z,16.67
2022-07-26T08:00:59.304Z,17.42
2022-07-26T08:03:38.102Z,17.02
2022-07-26T08:06:07.443Z,16.23
2022-07-26T08:08:35.018Z,16.65
2022-07-26T08:11:01.837Z,17.05
2022-07-26T08:13:30.914Z,15.68
2022-07-26T08:15:59.479Z,17.15
2022-07-26T08:18:27.709Z,14.95
2022-07-26T08:20:55.556Z,17.38
2022-07-26T08:23:23.022Z,16.02
2022-07-26T08:25:57.042Z,16.27
2022-07-26T08:31:14.755Z,17.63
2022-07-26T08:33:46.518Z,15.10
2022-07-26T08:36:17.515Z,17.33
2022-07-26T08:38:44.720Z,15.23
2022-07-26T08:41:14.879Z,17.10
2022-07-26T08:43:46.685Z,16.63
2022-07-26T08:46:26.390Z,15.57
2022-07-26T08:48:58.426Z,17.73
2022-07-26T08:51:26.376Z,15.65
2022-07-26T08:54:02.175Z,18.10
2022-07-26T08:56:32.537Z,19.85
2022-07-26T08:58:59.295Z,16.38
2022-07-26T09:01:26.054Z,17.30
2022-07-26T09:03:52.884Z,17.35
2022-07-26T09:06:22.354Z,16.20
2022-07-26T09:08:51.360Z,15.55
2022-07-26T09:11:24.166Z,15.40
2022-07-26T09:13:57.092Z,13.00
2022-07-26T09:16:24.751Z,14.10
2022-07-26T09:18:51.886Z,15.23
2022-07-26T09:21:31.568Z,13.77
2022-07-26T09:23:59.856Z,15.10
2022-07-26T09:26:27.350Z,14.55
2022-07-26T09:29:07.654Z,12.73
2022-07-26T09:31:35.774Z,12.82
2022-07-26T09:34:04.040Z,12.88
2022-07-26T09:36:31.278Z,12.30
2022-07-26T09:39:04.338Z,12.75
2022-07-26T09:41:32.647Z,13.60
2022-07-26T09:44:02.272Z,13.27
2022-07-26T09:46:30.682Z,13.43
2022-07-26T09:49:10.982Z,11.73
2022-07-26T09:51:42.145Z,10.55
2022-07-26T09:54:13.083Z,11.07
2022-07-26T09:56:52.513Z,12.95
2022-07-26T09:59:21.898Z,13.45
2022-07-26T10:01:50.569Z,14.25
2022-07-26T10:04:17.928Z,14.05
2022-07-26T10:06:44.976Z,12.10
2022-07-26T10:09:14.829Z,13.85
2022-07-26T10:12:05.591Z,13.15
2022-07-26T10:14:41.377Z,15.95
2022-07-26T10:17:31.382Z,12.45
2022-07-26T10:20:03.607Z,12.52
2022-07-26T10:22:48.088Z,13.25
2022-07-26T10:25:18.066Z,12.23
2022-07-26T10:27:49.099Z,12.40
2022-07-26T10:30:18.765Z,11.40
2022-07-26T10:32:55.112Z,12.00
2022-07-26T10:35:42.218Z,12.80
2022-07-26T10:38:22.524Z,11.90
2022-07-26T10:41:04.922Z,11.43
2022-07-26T10:43:42.028Z,9.23
2022-07-26T10:46:12.184Z,9.55
2022-07-26T10:48:59.277Z,9.52
2022-07-26T10:51:28.501Z,9.02
2022-07-26T10:54:06.287Z,9.95
2022-07-26T10:56:34.130Z,8.70
2022-07-26T10:59:01.556Z,8.88
2022-07-26T11:01:42.949Z,8.43
2022-07-26T11:04:23.089Z,9.25
2022-07-26T11:06:50.114Z,9.63
2022-07-26T11:09:19.035Z,9.48
2022-07-26T11:11:48.809Z,9.48
2022-07-26T11:14:17.825Z,9.73
2022-07-26T11:19:17.985Z,9.75
2022-07-26T11:21:46.719Z,9.57
2022-07-26T11:24:14.230Z,8.35
2022-07-26T11:26:47.333Z,9.07
2022-07-26T11:29:17.163Z,9.32
2022-07-26T11:31:51.406Z,9.20
2022-07-26T11:34:35.951Z,9.70
2022-07-26T11:37:05.053Z,8.63
2022-07-26T11:39:35.013Z,8.05
2022-07-26T11:42:05.145Z,8.00
2022-07-26T11:44:33.293Z,8.50
2022-07-26T11:47:10.095Z,10.07
2022-07-26T11:50:12.376Z,15.55
2022-07-26T11:52:31.639Z,18.38
2022-07-26T11:54:58.693Z,21.05
2022-07-26T11:57:30.091Z,19.73
2022-07-26T11:59:58.292Z,20.75
2022-07-26T12:02:25.119Z,17.92
2022-07-26T12:05:19.440Z,27.70
2022-07-26T12:08:04.382Z,21.70
2022-07-26T12:10:31.595Z,20.80
2022-07-26T12:13:12.804Z,23.75
2022-07-26T12:15:50.848Z,20.48
2022-07-26T12:18:28.920Z,18.50
2022-07-26T12:21:07.585Z,21.58
2022-07-26T12:24:01.048Z,24.75
2022-07-26T12:26:30.905Z,18.48
2022-07-26T12:28:59.904Z,20.20
2022-07-26T12:31:29.477Z,14.38
2022-07-26T12:33:57.015Z,19.95
2022-07-26T12:36:27.731Z,16.23
2022-07-26T12:38:57.342Z,22.92
2022-07-26T12:41:40.305Z,18.48
2022-07-26T12:44:12.418Z,14.55
2022-07-26T12:46:39.694Z,21.42
2022-07-26T12:49:06.566Z,10.75
2022-07-26T12:51:33.893Z,13.63
2022-07-26T12:54:00.637Z,8.65
2022-07-26T12:56:27.403Z,10.32
2022-07-26T12:58:54.431Z,13.13
2022-07-26T13:01:21.427Z,13.40
2022-07-26T13:03:48.277Z,13.30
2022-07-26T13:06:15.214Z,11.20
2022-07-26T13:08:42.094Z,12.38
2022-07-26T13:11:09.069Z,12.43
2022-07-26T13:13:35.849Z,19.38
2022-07-26T13:16:05.478Z,21.15
2022-07-26T13:18:34.937Z,15.93
2022-07-26T13:21:01.656Z,17.10
2022-07-26T13:23:28.373Z,15.82
2022-07-26T13:25:55.111Z,18.35
2022-07-26T13:28:22.633Z,15.00
2022-07-26T13:30:49.409Z,13.23
2022-07-26T13:33:17.701Z,12.45
2022-07-26T13:35:44.902Z,11.85
2022-07-26T13:38:11.582Z,10.30
2022-07-26T13:40:38.429Z,10.40
2022-07-26T13:43:05.857Z,9.05
2022-07-26T13:45:32.524Z,10.32
2022-07-26T13:47:59.864Z,8.15
2022-07-26T13:50:29.736Z,8.80
2022-07-26T13:52:56.909Z,8.63
2022-07-26T13:55:24.863Z,9.55
2022-07-26T13:57:56.817Z,9.07
2022-07-26T14:00:28.881Z,10.02
2022-07-26T14:02:58.126Z,10.05
2022-07-26T14:05:25.614Z,10.60
2022-07-26T14:07:52.938Z,18.23
2022-07-26T14:10:21.475Z,15.38
2022-07-26T14:12:49.018Z,11.80
2022-07-26T14:15:21.446Z,11.00
2022-07-26T14:17:48.637Z,11.60
2022-07-26T14:20:17.348Z,14.00
2022-07-26T14:22:44.915Z,14.90
2022-07-26T14:25:12.085Z,18.08
2022-07-26T14:27:38.868Z,14.15
2022-07-26T14:30:06.644Z,14.00
2022-07-26T14:32:33.486Z,12.52
2022-07-26T14:35:00.200Z,11.60
2022-07-26T14:37:44.234Z,11.45
2022-07-26T14:40:16.600Z,10.60
2022-07-26T14:42:44.313Z,10.88
2022-07-26T14:45:11.870Z,20.60
2022-07-26T14:47:39.396Z,11.48
2022-07-26T14:50:08.492Z,11.85
2022-07-26T14:52:40.580Z,11.70
2022-07-26T14:55:08.580Z,12.52
2022-07-26T14:57:38.170Z,12.75
2022-07-26T15:00:08.282Z,13.70
2022-07-26T15:02:35.395Z,12.40
2022-07-26T15:05:02.130Z,12.07
2022-07-26T15:07:28.912Z,11.82
2022-07-26T15:09:55.621Z,12.05
2022-07-26T15:12:22.378Z,13.10
2022-07-26T15:14:49.091Z,12.88
2022-07-26T15:17:16.186Z,12.18
2022-07-26T15:19:42.976Z,12.45
2022-07-26T15:22:10.191Z,12.13
2022-07-26T15:24:39.993Z,12.05
2022-07-26T15:27:10.021Z,12.00
2022-07-26T15:29:38.089Z,11.73
2022-07-26T15:32:05.764Z,11.20
2022-07-26T15:34:37.381Z,10.40
2022-07-26T15:37:04.101Z,10.60
2022-07-26T15:39:31.954Z,11.70
2022-07-26T15:42:05.406Z,10.35
2022-07-26T15:44:34.347Z,9.88
2022-07-26T15:47:01.051Z,10.23
2022-07-26T15:49:27.830Z,9.15
2022-07-26T15:51:54.683Z,10.73
2022-07-26T15:54:21.375Z,9.50
2022-07-26T15:56:48.111Z,8.95
2022-07-26T15:59:14.907Z,9.40
2022-07-26T16:01:41.992Z,8.43
2022-07-26T16:04:09.406Z,9.20
2022-07-26T16:06:36.368Z,9.15
2022-07-26T16:09:19.986Z,8.20
2022-07-26T16:11:48.550Z,8.93
2022-07-26T16:14:16.412Z,8.00
2022-07-26T16:16:43.277Z,8.07
2022-07-26T16:19:10.638Z,8.98
2022-07-26T16:21:38.085Z,8.63
2022-07-26T16:24:07.495Z,8.90
2022-07-26T16:26:35.120Z,9.38
2022-07-26T16:29:02.138Z,10.30
2022-07-26T16:31:29.031Z,10.93
2022-07-26T16:33:55.707Z,9.73
2022-07-26T16:36:22.465Z,8.85
2022-07-26T16:38:49.122Z,9.60
2022-07-26T16:41:15.813Z,9.75
2022-07-26T16:43:43.063Z,10.00
2022-07-26T16:46:10.174Z,9.45
2022-07-26T16:48:37.111Z,9.05
2022-07-26T16:51:04.046Z,9.60
2022-07-26T16:53:30.825Z,9.05
2022-07-26T16:55:57.538Z,8.73
2022-07-26T16:58:24.278Z,9.18
2022-07-26T17:00:50.993Z,10.40
2022-07-26T17:03:18.439Z,9.82
2022-07-26T17:05:46.364Z,9.27
2022-07-26T17:08:13.299Z,9.02
2022-07-26T17:10:41.517Z,9.20
2022-07-26T17:13:08.226Z,8.93
2022-07-26T17:15:35.049Z,9.00
2022-07-26T17:18:02.203Z,9.85
2022-07-26T17:20:29.268Z,8.55
2022-07-26T17:22:56.177Z,9.35
2022-07-26T17:25:22.907Z,8.98
2022-07-26T17:27:50.646Z,9.35
2022-07-26T17:30:17.502Z,9.82
2022-07-26T17:32:44.293Z,9.57
2022-07-26T17:35:11.089Z,10.15
2022-07-26T17:37:37.836Z,9.95
2022-07-26T17:40:08.387Z,9.95
2022-07-26T17:42:36.639Z,10.93
2022-07-26T17:45:04.741Z,10.98
2022-07-26T17:47:31.576Z,10.38
2022-07-26T17:52:50.478Z,9.60
2022-07-26T17:55:19.088Z,10.68
2022-07-26T17:57:47.885Z,10.18
2022-07-26T18:00:16.034Z,10.73
2022-07-26T18:02:42.797Z,10.95
2022-07-26T18:05:11.439Z,10.98
2022-07-26T18:07:38.576Z,10.20
2022-07-26T18:10:05.935Z,11.82
2022-07-26T18:12:33.302Z,10.63
2022-07-26T18:14:59.946Z,11.05
2022-07-26T18:17:26.639Z,11.93
2022-07-26T18:19:53.363Z,11.63
2022-07-26T18:22:20.054Z,11.35
2022-07-26T18:24:46.770Z,11.63
2022-07-26T18:27:13.433Z,11.65
2022-07-26T18:29:40.138Z,12.02
2022-07-26T18:32:06.978Z,10.43
2022-07-26T18:34:34.120Z,10.73
2022-07-26T18:37:00.800Z,10.77
2022-07-26T18:39:30.526Z,10.25
2022-07-26T18:41:59.842Z,10.60
2022-07-26T18:44:26.536Z,11.48
2022-07-26T18:46:53.392Z,10.77
2022-07-26T18:49:21.077Z,10.13
2022-07-26T18:51:49.003Z,10.32
2022-07-26T18:54:16.694Z,10.65
2022-07-26T18:56:43.557Z,10.75
2022-07-26T18:59:10.592Z,10.80
2022-07-26T19:01:37.616Z,9.93
2022-07-26T19:04:07.270Z,9.93
2022-07-26T19:06:35.032Z,10.00
2022-07-26T19:09:01.825Z,10.70
2022-07-26T19:11:29.797Z,11.50
2022-07-26T19:13:56.547Z,10.50
2022-07-26T19:16:23.469Z,10.13
2022-07-26T19:18:53.848Z,11.05
2022-07-26T19:21:23.722Z,12.10
2022-07-26T19:23:50.515Z,11.57
2022-07-26T19:26:17.217Z,11.95
2022-07-26T19:28:43.931Z,11.50
2022-07-26T19:31:10.882Z,11.10
2022-07-26T19:33:37.698Z,10.85
2022-07-26T19:36:04.620Z,11.82
2022-07-26T19:38:33.129Z,11.75
2022-07-26T19:41:01.198Z,13.20
2022-07-26T19:43:28.163Z,13.25
2022-07-26T19:45:55.386Z,16.15
2022-07-26T19:48:22.084Z,17.95
2022-07-26T19:50:48.914Z,19.17
2022-07-26T19:53:15.640Z,18.17
2022-07-26T19:55:42.606Z,13.18
2022-07-26T19:58:09.480Z,14.15
2022-07-26T20:00:36.390Z,14.15
2022-07-26T20:03:03.302Z,14.00
2022-07-26T20:05:30.181Z,12.85
2022-07-26T20:07:57.098Z,14.25
2022-07-26T20:10:27.334Z,13.23
2022-07-26T20:12:56.955Z,12.35
2022-07-26T20:15:23.745Z,11.10
2022-07-26T20:17:50.456Z,11.77
2022-07-26T20:20:18.019Z,11.98
2022-07-26T20:22:45.898Z,12.38
2022-07-26T20:25:14.082Z,10.60
2022-07-26T20:27:48.328Z,10.18
2022-07-26T20:30:15.535Z,11.03
2022-07-26T20:32:42.843Z,9.95
2022-07-26T20:35:09.702Z,11.02
2022-07-26T20:37:36.814Z,11.02
2022-07-26T20:40:04.355Z,10.60
2022-07-26T20:42:31.074Z,10.80
2022-07-26T20:44:58.786Z,10.73
2022-07-26T20:47:27.097Z,10.98
2022-07-26T20:49:53.932Z,10.85
2022-07-26T20:52:25.684Z,12.00
2022-07-26T20:54:52.445Z,10.57
2022-07-26T20:57:23.701Z,10.90
2022-07-26T20:59:50.768Z,10.95
2022-07-26T21:02:18.103Z,10.10
2022-07-26T21:04:45.741Z,10.65
2022-07-26T21:07:12.506Z,11.38
2022-07-26T21:09:39.229Z,10.70
2022-07-26T21:12:06.151Z,10.77
2022-07-26T21:14:33.840Z,10.70
2022-07-26T21:17:00.561Z,12.85
2022-07-26T21:19:27.651Z,11.52
2022-07-26T21:21:54.791Z,11.55
2022-07-26T21:24:21.601Z,11.73
2022-07-26T21:26:48.439Z,11.70
2022-07-26T21:29:16.237Z,10.68
2022-07-26T21:31:42.868Z,11.10
2022-07-26T21:34:10.308Z,11.85
2022-07-26T21:36:40.402Z,11.15
2022-07-26T21:39:08.334Z,11.97
2022-07-26T21:41:35.403Z,11.40
2022-07-26T21:44:03.091Z,10.98
2022-07-26T21:46:29.899Z,10.90
2022-07-26T21:48:56.760Z,11.85
2022-07-26T21:51:23.510Z,10.88
2022-07-26T21:53:50.189Z,10.45
2022-07-26T21:56:17.504Z,10.57
2022-07-26T21:58:44.258Z,10.80
2022-07-26T22:01:14.136Z,11.05
2022-07-26T22:03:43.057Z,11.73
2022-07-26T22:06:11.098Z,10.93
2022-07-26T22:08:37.957Z,10.65
2022-07-26T22:11:06.523Z,11.50
2022-07-26T22:13:33.285Z,10.63
2022-07-26T22:16:00.183Z,10.70
2022-07-26T22:18:27.958Z,10.98
2022-07-26T22:20:55.586Z,10.80
2022-07-26T22:23:30.653Z,11.02
2022-07-26T22:26:02.383Z,10.95
2022-07-26T22:28:30.645Z,11.38
2022-07-26T22:30:57.880Z,10.98
2022-07-26T22:33:24.791Z,10.32
2022-07-26T22:35:51.977Z,11.48
2022-07-26T22:38:18.948Z,10.05
2022-07-26T22:40:45.730Z,10.35
2022-07-26T22:43:12.913Z,10.30
2022-07-26T22:45:40.230Z,10.80
2022-07-26T22:48:09.537Z,11.15
2022-07-26T22:50:36.382Z,10.70
2022-07-26T22:53:03.872Z,12.48
2022-07-26T22:55:30.999Z,10.98
2022-07-26T22:57:57.965Z,12.20
2022-07-26T23:00:25.372Z,12.25
2022-07-26T23:02:52.257Z,11.98
2022-07-26T23:05:19.806Z,11.75
2022-07-26T23:07:48.441Z,11.70
2022-07-26T23:10:16.470Z,12.15
2022-07-26T23:12:43.686Z,11.60
2022-07-26T23:15:11.267Z,12.35
2022-07-26T23:17:38.595Z,10.23
2022-07-26T23:20:07.147Z,12.48
2022-07-26T23:22:34.551Z,11.65
2022-07-26T23:25:01.678Z,11.15
2022-07-26T23:27:28.387Z,10.82
2022-07-26T23:29:55.544Z,13.38
2022-07-26T23:32:22.276Z,11.43
2022-07-26T23:34:48.962Z,11.93
2022-07-26T23:37:15.686Z,14.27
2022-07-26T23:39:42.656Z,12.43
2022-07-26T23:42:09.338Z,16.77
2022-07-26T23:44:36.494Z,14.55
2022-07-26T23:47:03.372Z,15.73
2022-07-26T23:49:30.254Z,17.02
2022-07-26T23:51:56.991Z,15.90
2022-07-26T23:54:23.701Z,16.50
2022-07-26T23:56:50.389Z,17.13
2022-07-26T23:59:17.158Z,16.10
